sensor_id;sensor_type;location;lat;lon;timestamp;temperature;humidity
33741;DHT22;20065;48.380;10.892;2023-06-05T00:02:41;17.40;99.90
33741;DHT22;20065;48.380;10.892;2023-06-05T00:05:27;17.40;99.90
33741;DHT22;20065;48.380;10.892;2023-06-05T00:08:18;17.40;99.90
33741;DHT22;20065;48.380;10.892;2023-06-05T00:11:05;17.40;99.90
33741;DHT22;20065;48.380;10.892;2023-06-05T00:14:07;17.30;99.90
33741;DHT22;20065;48.380;10.892;2023-06-05T00:16:57;17.40;99.90
33741;DHT22;20065;48.380;10.892;2023-06-05T00:19:43;17.30;99.90
33741;DHT22;20065;48.380;10.892;2023-06-05T00:22:30;17.30;99.90
33741;DHT22;20065;48.380;10.892;2023-06-05T00:25:23;17.30;99.90
33741;DHT22;20065;48.380;10.892;2023-06-05T00:28:10;17.30;99.90
33741;DHT22;20065;48.380;10.892;2023-06-05T00:31:00;17.30;99.90
33741;DHT22;20065;48.380;10.892;2023-06-05T00:33:47;17.30;99.90
33741;DHT22;20065;48.380;10.892;2023-06-05T00:36:33;17.30;99.90
33741;DHT22;20065;48.380;10.892;2023-06-05T00:39:26;17.30;99.90
33741;DHT22;20065;48.380;10.892;2023-06-05T00:42:15;17.30;99.90
33741;DHT22;20065;48.380;10.892;2023-06-05T00:45:01;17.20;99.90
33741;DHT22;20065;48.380;10.892;2023-06-05T00:47:47;17.20;99.90
33741;DHT22;20065;48.380;10.892;2023-06-05T00:50:34;17.10;99.90
33741;DHT22;20065;48.380;10.892;2023-06-05T00:53:20;17.20;99.90
33741;DHT22;20065;48.380;10.892;2023-06-05T00:56:09;17.20;99.90
33741;DHT22;20065;48.380;10.892;2023-06-05T00:58:56;17.20;99.90
33741;DHT22;20065;48.380;10.892;2023-06-05T01:01:44;17.20;99.90
33741;DHT22;20065;48.380;10.892;2023-06-05T01:04:31;17.20;99.90
33741;DHT22;20065;48.380;10.892;2023-06-05T01:07:19;17.10;99.90
33741;DHT22;20065;48.380;10.892;2023-06-05T01:10:08;17.10;99.90
33741;DHT22;20065;48.380;10.892;2023-06-05T01:15:41;17.10;99.90
33741;DHT22;20065;48.380;10.892;2023-06-05T01:18:27;17.10;99.90
33741;DHT22;20065;48.380;10.892;2023-06-05T01:21:15;17.10;99.90
33741;DHT22;20065;48.380;10.892;2023-06-05T01:24:01;17.10;99.90
33741;DHT22;20065;48.380;10.892;2023-06-05T01:27:06;17.10;99.90
33741;DHT22;20065;48.380;10.892;2023-06-05T01:30:37;17.10;99.90
33741;DHT22;20065;48.380;10.892;2023-06-05T01:33:29;17.10;99.90
33741;DHT22;20065;48.380;10.892;2023-06-05T01:36:17;17.10;99.90
33741;DHT22;20065;48.380;10.892;2023-06-05T01:39:03;17.10;99.90
33741;DHT22;20065;48.380;10.892;2023-06-05T01:41:51;17.00;99.90
33741;DHT22;20065;48.380;10.892;2023-06-05T01:44:40;17.10;99.90
33741;DHT22;20065;48.380;10.892;2023-06-05T01:47:30;17.00;99.90
33741;DHT22;20065;48.380;10.892;2023-06-05T01:50:18;17.10;99.90
33741;DHT22;20065;48.380;10.892;2023-06-05T01:53:05;17.10;99.90
33741;DHT22;20065;48.380;10.892;2023-06-05T01:55:52;17.10;99.90
33741;DHT22;20065;48.380;10.892;2023-06-05T01:58:40;17.10;99.90
33741;DHT22;20065;48.380;10.892;2023-06-05T02:01:26;17.00;99.90
33741;DHT22;20065;48.380;10.892;2023-06-05T02:04:14;17.00;99.90
33741;DHT22;20065;48.380;10.892;2023-06-05T02:07:03;17.10;99.90
33741;DHT22;20065;48.380;10.892;2023-06-05T02:09:51;17.00;99.90
33741;DHT22;20065;48.380;10.892;2023-06-05T02:12:37;17.00;99.90
33741;DHT22;20065;48.380;10.892;2023-06-05T02:15:23;17.00;99.90
33741;DHT22;20065;48.380;10.892;2023-06-05T02:18:10;17.00;99.90
33741;DHT22;20065;48.380;10.892;2023-06-05T02:20:56;17.00;99.90
33741;DHT22;20065;48.380;10.892;2023-06-05T02:23:42;16.90;99.90
33741;DHT22;20065;48.380;10.892;2023-06-05T02:26:29;16.90;99.90
33741;DHT22;20065;48.380;10.892;2023-06-05T02:29:16;16.90;99.90
33741;DHT22;20065;48.380;10.892;2023-06-05T02:32:05;16.90;99.90
33741;DHT22;20065;48.380;10.892;2023-06-05T02:34:52;16.90;99.90
33741;DHT22;20065;48.380;10.892;2023-06-05T02:37:40;16.80;99.90
33741;DHT22;20065;48.380;10.892;2023-06-05T02:40:31;16.90;99.90
33741;DHT22;20065;48.380;10.892;2023-06-05T02:43:17;16.80;99.90
33741;DHT22;20065;48.380;10.892;2023-06-05T02:46:04;16.80;99.90
33741;DHT22;20065;48.380;10.892;2023-06-05T02:48:53;16.70;99.90
33741;DHT22;20065;48.380;10.892;2023-06-05T02:51:39;16.70;99.90
33741;DHT22;20065;48.380;10.892;2023-06-05T02:54:26;16.70;99.90
33741;DHT22;20065;48.380;10.892;2023-06-05T02:57:16;16.70;99.90
33741;DHT22;20065;48.380;10.892;2023-06-05T03:00:04;16.70;99.90
33741;DHT22;20065;48.380;10.892;2023-06-05T03:02:57;16.70;99.90
33741;DHT22;20065;48.380;10.892;2023-06-05T03:05:49;16.70;99.90
33741;DHT22;20065;48.380;10.892;2023-06-05T03:08:37;16.60;99.90
33741;DHT22;20065;48.380;10.892;2023-06-05T03:11:25;16.70;99.90
33741;DHT22;20065;48.380;10.892;2023-06-05T03:14:12;16.70;99.90
33741;DHT22;20065;48.380;10.892;2023-06-05T03:16:58;16.70;99.90
33741;DHT22;20065;48.380;10.892;2023-06-05T03:19:46;16.60;99.90
33741;DHT22;20065;48.380;10.892;2023-06-05T03:22:33;16.60;99.90
33741;DHT22;20065;48.380;10.892;2023-06-05T03:25:20;16.60;99.90
33741;DHT22;20065;48.380;10.892;2023-06-05T03:28:10;16.60;99.90
33741;DHT22;20065;48.380;10.892;2023-06-05T03:30:56;16.60;99.90
33741;DHT22;20065;48.380;10.892;2023-06-05T03:33:45;16.50;99.90
33741;DHT22;20065;48.380;10.892;2023-06-05T03:36:33;16.50;99.90
33741;DHT22;20065;48.380;10.892;2023-06-05T03:39:25;16.50;99.90
33741;DHT22;20065;48.380;10.892;2023-06-05T03:42:13;16.50;99.90
33741;DHT22;20065;48.380;10.892;2023-06-05T03:44:59;16.50;99.90
33741;DHT22;20065;48.380;10.892;2023-06-05T03:47:45;16.40;99.90
33741;DHT22;20065;48.380;10.892;2023-06-05T03:54:38;16.40;99.90
33741;DHT22;20065;48.380;10.892;2023-06-05T03:57:24;16.40;99.90
33741;DHT22;20065;48.380;10.892;2023-06-05T04:00:11;16.40;99.90
33741;DHT22;20065;48.380;10.892;2023-06-05T04:03:08;16.40;99.90
33741;DHT22;20065;48.380;10.892;2023-06-05T04:05:55;16.50;99.90
33741;DHT22;20065;48.380;10.892;2023-06-05T04:08:41;16.50;99.90
33741;DHT22;20065;48.380;10.892;2023-06-05T04:11:27;16.50;99.90
33741;DHT22;20065;48.380;10.892;2023-06-05T04:14:17;16.60;99.90
33741;DHT22;20065;48.380;10.892;2023-06-05T04:17:04;16.60;99.90
33741;DHT22;20065;48.380;10.892;2023-06-05T04:19:50;16.60;99.90
33741;DHT22;20065;48.380;10.892;2023-06-05T04:22:36;16.70;99.90
33741;DHT22;20065;48.380;10.892;2023-06-05T04:25:23;16.60;99.90
33741;DHT22;20065;48.380;10.892;2023-06-05T04:28:09;16.70;99.90
33741;DHT22;20065;48.380;10.892;2023-06-05T04:30:55;16.70;99.90
33741;DHT22;20065;48.380;10.892;2023-06-05T04:33:43;16.70;99.90
33741;DHT22;20065;48.380;10.892;2023-06-05T04:36:29;16.80;99.90
33741;DHT22;20065;48.380;10.892;2023-06-05T04:39:15;16.80;99.90
33741;DHT22;20065;48.380;10.892;2023-06-05T04:42:03;16.80;99.90
33741;DHT22;20065;48.380;10.892;2023-06-05T04:45:03;16.80;99.90
33741;DHT22;20065;48.380;10.892;2023-06-05T04:47:52;16.90;99.90
33741;DHT22;20065;48.380;10.892;2023-06-05T04:50:38;16.80;99.90
33741;DHT22;20065;48.380;10.892;2023-06-05T04:53:28;16.90;99.90
33741;DHT22;20065;48.380;10.892;2023-06-05T04:56:15;16.90;99.90
33741;DHT22;20065;48.380;10.892;2023-06-05T04:59:01;16.90;99.90
33741;DHT22;20065;48.380;10.892;2023-06-05T05:01:49;17.00;99.90
33741;DHT22;20065;48.380;10.892;2023-06-05T05:04:36;17.00;99.90
33741;DHT22;20065;48.380;10.892;2023-06-05T05:07:22;17.00;99.90
33741;DHT22;20065;48.380;10.892;2023-06-05T05:10:10;17.00;99.90
33741;DHT22;20065;48.380;10.892;2023-06-05T05:12:57;17.00;99.90
33741;DHT22;20065;48.380;10.892;2023-06-05T05:15:47;17.10;99.90
33741;DHT22;20065;48.380;10.892;2023-06-05T05:18:34;17.10;99.90
33741;DHT22;20065;48.380;10.892;2023-06-05T05:21:21;17.10;99.90
33741;DHT22;20065;48.380;10.892;2023-06-05T05:24:07;17.20;99.90
33741;DHT22;20065;48.380;10.892;2023-06-05T05:26:53;17.20;99.90
33741;DHT22;20065;48.380;10.892;2023-06-05T05:29:39;17.30;99.90
33741;DHT22;20065;48.380;10.892;2023-06-05T05:32:26;17.30;99.90
33741;DHT22;20065;48.380;10.892;2023-06-05T05:35:12;17.30;99.90
33741;DHT22;20065;48.380;10.892;2023-06-05T05:37:58;17.40;99.90
33741;DHT22;20065;48.380;10.892;2023-06-05T05:40:45;17.40;99.90
33741;DHT22;20065;48.380;10.892;2023-06-05T05:43:31;17.40;99.90
33741;DHT22;20065;48.380;10.892;2023-06-05T05:46:17;17.50;99.90
33741;DHT22;20065;48.380;10.892;2023-06-05T05:49:03;17.50;99.90
33741;DHT22;20065;48.380;10.892;2023-06-05T05:51:50;17.50;99.90
33741;DHT22;20065;48.380;10.892;2023-06-05T05:54:39;17.60;99.90
33741;DHT22;20065;48.380;10.892;2023-06-05T05:57:25;17.60;99.90
33741;DHT22;20065;48.380;10.892;2023-06-05T06:00:14;17.70;99.90
33741;DHT22;20065;48.380;10.892;2023-06-05T06:03:00;17.70;99.90
33741;DHT22;20065;48.380;10.892;2023-06-05T06:05:46;17.70;99.90
33741;DHT22;20065;48.380;10.892;2023-06-05T06:08:33;17.80;99.90
33741;DHT22;20065;48.380;10.892;2023-06-05T06:11:20;17.80;99.90
33741;DHT22;20065;48.380;10.892;2023-06-05T06:14:06;17.80;99.90
33741;DHT22;20065;48.380;10.892;2023-06-05T06:16:52;17.80;99.90
33741;DHT22;20065;48.380;10.892;2023-06-05T06:19:40;17.80;99.90
33741;DHT22;20065;48.380;10.892;2023-06-05T06:22:26;17.80;99.90
33741;DHT22;20065;48.380;10.892;2023-06-05T06:25:13;17.90;99.90
33741;DHT22;20065;48.380;10.892;2023-06-05T06:28:01;17.90;99.90
33741;DHT22;20065;48.380;10.892;2023-06-05T06:30:48;18.00;99.90
33741;DHT22;20065;48.380;10.892;2023-06-05T06:33:34;17.90;99.90
33741;DHT22;20065;48.380;10.892;2023-06-05T06:36:22;18.00;99.90
33741;DHT22;20065;48.380;10.892;2023-06-05T06:39:09;18.00;99.90
33741;DHT22;20065;48.380;10.892;2023-06-05T06:41:56;18.10;99.90
33741;DHT22;20065;48.380;10.892;2023-06-05T06:44:43;18.10;99.90
33741;DHT22;20065;48.380;10.892;2023-06-05T06:47:29;18.20;99.90
33741;DHT22;20065;48.380;10.892;2023-06-05T06:50:16;18.20;99.90
33741;DHT22;20065;48.380;10.892;2023-06-05T06:53:02;18.20;99.90
33741;DHT22;20065;48.380;10.892;2023-06-05T06:55:49;18.20;99.90
33741;DHT22;20065;48.380;10.892;2023-06-05T06:58:35;18.30;99.90
33741;DHT22;20065;48.380;10.892;2023-06-05T07:01:22;18.30;99.90
33741;DHT22;20065;48.380;10.892;2023-06-05T07:04:09;18.30;99.90
33741;DHT22;20065;48.380;10.892;2023-06-05T07:06:56;18.30;99.90
33741;DHT22;20065;48.380;10.892;2023-06-05T07:09:44;18.30;99.90
33741;DHT22;20065;48.380;10.892;2023-06-05T07:12:30;18.30;99.90
33741;DHT22;20065;48.380;10.892;2023-06-05T07:15:16;18.40;99.90
33741;DHT22;20065;48.380;10.892;2023-06-05T07:18:02;18.40;99.90
33741;DHT22;20065;48.380;10.892;2023-06-05T07:20:49;18.40;99.90
33741;DHT22;20065;48.380;10.892;2023-06-05T07:23:35;18.40;99.90
33741;DHT22;20065;48.380;10.892;2023-06-05T07:26:22;18.50;99.90
33741;DHT22;20065;48.380;10.892;2023-06-05T07:29:10;18.50;99.90
33741;DHT22;20065;48.380;10.892;2023-06-05T07:31:57;18.50;99.90
33741;DHT22;20065;48.380;10.892;2023-06-05T07:34:44;18.50;99.90
33741;DHT22;20065;48.380;10.892;2023-06-05T07:37:30;18.60;99.90
33741;DHT22;20065;48.380;10.892;2023-06-05T07:40:16;18.60;99.90
33741;DHT22;20065;48.380;10.892;2023-06-05T07:43:03;18.70;99.90
33741;DHT22;20065;48.380;10.892;2023-06-05T07:45:49;18.70;99.90
33741;DHT22;20065;48.380;10.892;2023-06-05T07:48:36;18.70;99.90
33741;DHT22;20065;48.380;10.892;2023-06-05T07:51:22;18.70;99.90
33741;DHT22;20065;48.380;10.892;2023-06-05T07:54:11;18.70;99.90
33741;DHT22;20065;48.380;10.892;2023-06-05T07:56:57;18.80;99.90
33741;DHT22;20065;48.380;10.892;2023-06-05T07:59:44;18.80;99.90
33741;DHT22;20065;48.380;10.892;2023-06-05T08:02:30;18.80;99.90
33741;DHT22;20065;48.380;10.892;2023-06-05T08:05:16;18.80;99.90
33741;DHT22;20065;48.380;10.892;2023-06-05T08:08:03;18.90;99.90
33741;DHT22;20065;48.380;10.892;2023-06-05T08:10:49;19.00;99.90
33741;DHT22;20065;48.380;10.892;2023-06-05T08:13:37;19.00;99.90
33741;DHT22;20065;48.380;10.892;2023-06-05T08:16:24;19.10;99.90
33741;DHT22;20065;48.380;10.892;2023-06-05T08:19:10;19.10;99.90
33741;DHT22;20065;48.380;10.892;2023-06-05T08:21:56;19.20;99.90
33741;DHT22;20065;48.380;10.892;2023-06-05T08:24:43;19.20;99.90
33741;DHT22;20065;48.380;10.892;2023-06-05T08:27:29;19.20;99.90
33741;DHT22;20065;48.380;10.892;2023-06-05T08:30:16;19.30;99.90
33741;DHT22;20065;48.380;10.892;2023-06-05T08:33:02;19.30;99.90
33741;DHT22;20065;48.380;10.892;2023-06-05T08:35:48;19.50;99.90
33741;DHT22;20065;48.380;10.892;2023-06-05T08:38:35;19.30;99.90
33741;DHT22;20065;48.380;10.892;2023-06-05T08:41:24;19.30;99.90
33741;DHT22;20065;48.380;10.892;2023-06-05T08:44:12;19.40;99.90
33741;DHT22;20065;48.380;10.892;2023-06-05T08:47:03;19.50;99.90
33741;DHT22;20065;48.380;10.892;2023-06-05T08:49:52;19.60;99.90
33741;DHT22;20065;48.380;10.892;2023-06-05T08:52:42;19.50;99.90
33741;DHT22;20065;48.380;10.892;2023-06-05T08:55:34;19.50;99.90
33741;DHT22;20065;48.380;10.892;2023-06-05T08:58:20;19.60;99.90
33741;DHT22;20065;48.380;10.892;2023-06-05T09:01:07;19.70;99.90
33741;DHT22;20065;48.380;10.892;2023-06-05T09:03:53;19.80;99.90
33741;DHT22;20065;48.380;10.892;2023-06-05T09:06:39;19.80;99.90
33741;DHT22;20065;48.380;10.892;2023-06-05T09:09:26;19.90;99.90
33741;DHT22;20065;48.380;10.892;2023-06-05T09:12:12;19.90;99.90
33741;DHT22;20065;48.380;10.892;2023-06-05T09:14:59;19.90;99.90
33741;DHT22;20065;48.380;10.892;2023-06-05T09:17:45;19.90;99.90
33741;DHT22;20065;48.380;10.892;2023-06-05T09:20:32;20.00;99.90
33741;DHT22;20065;48.380;10.892;2023-06-05T09:23:25;20.00;99.90
33741;DHT22;20065;48.380;10.892;2023-06-05T09:26:14;20.10;99.90
33741;DHT22;20065;48.380;10.892;2023-06-05T09:29:01;20.10;99.90
33741;DHT22;20065;48.380;10.892;2023-06-05T09:31:50;20.10;99.90
33741;DHT22;20065;48.380;10.892;2023-06-05T09:34:38;20.20;99.90
33741;DHT22;20065;48.380;10.892;2023-06-05T09:37:35;20.20;99.90
33741;DHT22;20065;48.380;10.892;2023-06-05T09:40:36;20.30;99.90
33741;DHT22;20065;48.380;10.892;2023-06-05T09:43:23;20.20;99.90
33741;DHT22;20065;48.380;10.892;2023-06-05T09:46:11;20.30;99.90
33741;DHT22;20065;48.380;10.892;2023-06-05T09:48:57;20.30;99.90
33741;DHT22;20065;48.380;10.892;2023-06-05T09:51:47;20.40;99.90
33741;DHT22;20065;48.380;10.892;2023-06-05T09:54:36;20.50;99.90
33741;DHT22;20065;48.380;10.892;2023-06-05T09:57:24;20.50;99.90
33741;DHT22;20065;48.380;10.892;2023-06-05T10:00:12;20.50;99.40
33741;DHT22;20065;48.380;10.892;2023-06-05T10:03:00;20.50;99.70
33741;DHT22;20065;48.380;10.892;2023-06-05T10:05:48;20.60;99.60
33741;DHT22;20065;48.380;10.892;2023-06-05T10:08:35;20.60;98.90
33741;DHT22;20065;48.380;10.892;2023-06-05T10:11:23;20.70;98.90
33741;DHT22;20065;48.380;10.892;2023-06-05T10:14:10;20.80;97.80
33741;DHT22;20065;48.380;10.892;2023-06-05T10:16:57;20.80;97.70
33741;DHT22;20065;48.380;10.892;2023-06-05T10:19:44;20.90;98.30
33741;DHT22;20065;48.380;10.892;2023-06-05T10:22:31;20.90;98.20
33741;DHT22;20065;48.380;10.892;2023-06-05T10:25:44;20.90;97.60
33741;DHT22;20065;48.380;10.892;2023-06-05T10:28:57;21.00;97.60
33741;DHT22;20065;48.380;10.892;2023-06-05T10:31:53;20.90;96.40
33741;DHT22;20065;48.380;10.892;2023-06-05T10:37:44;21.20;97.40
33741;DHT22;20065;48.380;10.892;2023-06-05T10:40:33;21.40;97.90
33741;DHT22;20065;48.380;10.892;2023-06-05T10:43:30;21.30;96.40
33741;DHT22;20065;48.380;10.892;2023-06-05T10:46:36;21.50;96.40
33741;DHT22;20065;48.380;10.892;2023-06-05T10:49:22;21.60;96.60
33741;DHT22;20065;48.380;10.892;2023-06-05T10:52:37;21.70;97.60
33741;DHT22;20065;48.380;10.892;2023-06-05T10:55:25;21.80;95.90
33741;DHT22;20065;48.380;10.892;2023-06-05T10:58:13;21.70;96.10
33741;DHT22;20065;48.380;10.892;2023-06-05T11:04:02;21.80;95.70
33741;DHT22;20065;48.380;10.892;2023-06-05T11:07:20;21.60;96.00
33741;DHT22;20065;48.380;10.892;2023-06-05T11:12:56;21.60;95.30
33741;DHT22;20065;48.380;10.892;2023-06-05T11:15:43;21.50;95.90
33741;DHT22;20065;48.380;10.892;2023-06-05T11:18:33;21.60;96.10
33741;DHT22;20065;48.380;10.892;2023-06-05T11:21:20;21.70;95.90
33741;DHT22;20065;48.380;10.892;2023-06-05T11:24:18;21.50;95.40
33741;DHT22;20065;48.380;10.892;2023-06-05T11:27:05;21.70;95.80
33741;DHT22;20065;48.380;10.892;2023-06-05T11:29:56;21.60;95.60
33741;DHT22;20065;48.380;10.892;2023-06-05T11:32:56;21.80;96.00
33741;DHT22;20065;48.380;10.892;2023-06-05T11:35:47;21.90;96.40
33741;DHT22;20065;48.380;10.892;2023-06-05T11:38:34;21.90;95.40
33741;DHT22;20065;48.380;10.892;2023-06-05T11:41:22;22.00;95.00
33741;DHT22;20065;48.380;10.892;2023-06-05T11:44:11;22.10;94.60
33741;DHT22;20065;48.380;10.892;2023-06-05T11:46:57;22.00;94.40
33741;DHT22;20065;48.380;10.892;2023-06-05T11:49:44;22.20;93.70
33741;DHT22;20065;48.380;10.892;2023-06-05T11:52:30;22.30;93.70
33741;DHT22;20065;48.380;10.892;2023-06-05T11:55:20;22.40;93.40
33741;DHT22;20065;48.380;10.892;2023-06-05T11:58:08;22.60;93.30
33741;DHT22;20065;48.380;10.892;2023-06-05T12:01:07;22.70;93.20
33741;DHT22;20065;48.380;10.892;2023-06-05T12:04:03;22.80;93.10
33741;DHT22;20065;48.380;10.892;2023-06-05T12:06:50;22.80;93.30
33741;DHT22;20065;48.380;10.892;2023-06-05T12:09:37;22.70;95.10
33741;DHT22;20065;48.380;10.892;2023-06-05T12:12:24;22.70;93.70
33741;DHT22;20065;48.380;10.892;2023-06-05T12:15:16;22.60;94.00
33741;DHT22;20065;48.380;10.892;2023-06-05T12:18:04;22.50;95.10
33741;DHT22;20065;48.380;10.892;2023-06-05T12:20:51;22.50;95.20
33741;DHT22;20065;48.380;10.892;2023-06-05T12:23:39;22.50;94.00
33741;DHT22;20065;48.380;10.892;2023-06-05T12:26:25;22.50;95.00
33741;DHT22;20065;48.380;10.892;2023-06-05T12:29:19;22.40;93.60
33741;DHT22;20065;48.380;10.892;2023-06-05T12:32:25;22.40;93.80
33741;DHT22;20065;48.380;10.892;2023-06-05T12:35:19;22.50;92.70
33741;DHT22;20065;48.380;10.892;2023-06-05T12:38:06;22.60;93.70
33741;DHT22;20065;48.380;10.892;2023-06-05T12:40:54;22.60;92.90
33741;DHT22;20065;48.380;10.892;2023-06-05T12:43:40;22.60;93.30
33741;DHT22;20065;48.380;10.892;2023-06-05T12:46:26;22.60;92.80
33741;DHT22;20065;48.380;10.892;2023-06-05T12:49:14;22.50;92.90
33741;DHT22;20065;48.380;10.892;2023-06-05T12:52:19;22.60;93.80
33741;DHT22;20065;48.380;10.892;2023-06-05T12:58:59;22.80;93.70
33741;DHT22;20065;48.380;10.892;2023-06-05T13:01:45;22.80;94.30
33741;DHT22;20065;48.380;10.892;2023-06-05T13:04:32;22.80;93.70
33741;DHT22;20065;48.380;10.892;2023-06-05T13:07:19;22.80;93.50
33741;DHT22;20065;48.380;10.892;2023-06-05T13:10:07;22.90;92.80
33741;DHT22;20065;48.380;10.892;2023-06-05T13:12:54;22.90;94.30
33741;DHT22;20065;48.380;10.892;2023-06-05T13:15:40;23.00;92.40
33741;DHT22;20065;48.380;10.892;2023-06-05T13:18:28;23.10;93.80
33741;DHT22;20065;48.380;10.892;2023-06-05T13:21:14;23.10;92.80
33741;DHT22;20065;48.380;10.892;2023-06-05T13:24:01;23.10;91.80
33741;DHT22;20065;48.380;10.892;2023-06-05T13:26:47;23.20;91.70
33741;DHT22;20065;48.380;10.892;2023-06-05T13:29:34;23.20;92.80
33741;DHT22;20065;48.380;10.892;2023-06-05T13:32:20;23.20;92.50
33741;DHT22;20065;48.380;10.892;2023-06-05T13:35:08;23.10;92.40
33741;DHT22;20065;48.380;10.892;2023-06-05T13:37:55;23.20;92.90
33741;DHT22;20065;48.380;10.892;2023-06-05T13:40:41;23.30;93.10
33741;DHT22;20065;48.380;10.892;2023-06-05T13:43:28;23.40;94.20
33741;DHT22;20065;48.380;10.892;2023-06-05T13:46:15;23.40;93.50
33741;DHT22;20065;48.380;10.892;2023-06-05T13:49:02;23.50;92.00
33741;DHT22;20065;48.380;10.892;2023-06-05T13:51:48;23.50;92.10
33741;DHT22;20065;48.380;10.892;2023-06-05T13:54:35;23.50;92.60
33741;DHT22;20065;48.380;10.892;2023-06-05T13:57:21;23.40;92.30
33741;DHT22;20065;48.380;10.892;2023-06-05T14:00:08;23.50;92.40
33741;DHT22;20065;48.380;10.892;2023-06-05T14:02:56;23.50;92.60
33741;DHT22;20065;48.380;10.892;2023-06-05T14:05:42;23.60;92.80
33741;DHT22;20065;48.380;10.892;2023-06-05T14:08:33;23.70;92.60
33741;DHT22;20065;48.380;10.892;2023-06-05T14:11:22;23.60;92.00
33741;DHT22;20065;48.380;10.892;2023-06-05T14:14:08;23.70;92.10
33741;DHT22;20065;48.380;10.892;2023-06-05T14:16:54;23.80;91.40
33741;DHT22;20065;48.380;10.892;2023-06-05T14:19:40;23.80;92.00
33741;DHT22;20065;48.380;10.892;2023-06-05T14:22:31;23.70;91.20
33741;DHT22;20065;48.380;10.892;2023-06-05T14:25:18;23.70;91.40
33741;DHT22;20065;48.380;10.892;2023-06-05T14:28:05;23.60;91.90
33741;DHT22;20065;48.380;10.892;2023-06-05T14:30:58;23.50;90.00
33741;DHT22;20065;48.380;10.892;2023-06-05T14:33:47;23.50;90.70
33741;DHT22;20065;48.380;10.892;2023-06-05T14:36:33;23.50;91.60
33741;DHT22;20065;48.380;10.892;2023-06-05T14:39:19;23.50;91.10
33741;DHT22;20065;48.380;10.892;2023-06-05T14:42:10;23.50;91.00
33741;DHT22;20065;48.380;10.892;2023-06-05T14:44:58;23.50;91.50
33741;DHT22;20065;48.380;10.892;2023-06-05T14:47:47;23.50;91.70
33741;DHT22;20065;48.380;10.892;2023-06-05T14:50:37;23.50;91.50
33741;DHT22;20065;48.380;10.892;2023-06-05T14:53:28;23.60;92.10
33741;DHT22;20065;48.380;10.892;2023-06-05T14:56:21;23.70;91.80
33741;DHT22;20065;48.380;10.892;2023-06-05T14:59:08;23.70;92.70
33741;DHT22;20065;48.380;10.892;2023-06-05T15:01:56;23.80;91.80
33741;DHT22;20065;48.380;10.892;2023-06-05T15:04:42;23.80;91.70
33741;DHT22;20065;48.380;10.892;2023-06-05T15:07:36;23.70;91.40
33741;DHT22;20065;48.380;10.892;2023-06-05T15:10:43;23.80;91.00
33741;DHT22;20065;48.380;10.892;2023-06-05T15:17:02;23.70;90.90
33741;DHT22;20065;48.380;10.892;2023-06-05T15:19:51;23.70;90.10
33741;DHT22;20065;48.380;10.892;2023-06-05T15:22:55;23.70;90.40
33741;DHT22;20065;48.380;10.892;2023-06-05T15:29:15;23.70;91.10
33741;DHT22;20065;48.380;10.892;2023-06-05T15:32:02;23.70;92.50
33741;DHT22;20065;48.380;10.892;2023-06-05T15:34:48;23.60;95.70
33741;DHT22;20065;48.380;10.892;2023-06-05T15:37:35;23.70;97.00
33741;DHT22;20065;48.380;10.892;2023-06-05T15:40:26;23.70;97.10
33741;DHT22;20065;48.380;10.892;2023-06-05T15:43:16;23.70;97.40
33741;DHT22;20065;48.380;10.892;2023-06-05T15:46:02;23.70;97.60
33741;DHT22;20065;48.380;10.892;2023-06-05T15:48:49;23.60;98.10
33741;DHT22;20065;48.380;10.892;2023-06-05T15:51:35;23.50;97.90
33741;DHT22;20065;48.380;10.892;2023-06-05T15:54:21;23.40;97.90
33741;DHT22;20065;48.380;10.892;2023-06-05T15:57:08;23.20;98.10
33741;DHT22;20065;48.380;10.892;2023-06-05T15:59:55;23.10;98.00
33741;DHT22;20065;48.380;10.892;2023-06-05T16:02:41;22.70;98.40
33741;DHT22;20065;48.380;10.892;2023-06-05T16:05:28;22.50;98.60
33741;DHT22;20065;48.380;10.892;2023-06-05T16:08:14;22.40;99.60
33741;DHT22;20065;48.380;10.892;2023-06-05T16:11:02;22.20;99.90
33741;DHT22;20065;48.380;10.892;2023-06-05T16:13:50;22.10;99.90
33741;DHT22;20065;48.380;10.892;2023-06-05T16:16:36;22.00;99.90
33741;DHT22;20065;48.380;10.892;2023-06-05T16:19:23;21.90;99.90
33741;DHT22;20065;48.380;10.892;2023-06-05T16:22:09;21.70;99.90
33741;DHT22;20065;48.380;10.892;2023-06-05T16:25:05;21.40;99.90
33741;DHT22;20065;48.380;10.892;2023-06-05T16:27:52;21.10;99.90
33741;DHT22;20065;48.380;10.892;2023-06-05T16:30:41;20.80;99.90
33741;DHT22;20065;48.380;10.892;2023-06-05T16:33:27;20.80;99.90
33741;DHT22;20065;48.380;10.892;2023-06-05T16:36:19;20.60;99.90
33741;DHT22;20065;48.380;10.892;2023-06-05T16:39:05;20.50;99.90
33741;DHT22;20065;48.380;10.892;2023-06-05T16:41:52;20.50;99.90
33741;DHT22;20065;48.380;10.892;2023-06-05T16:44:39;20.40;99.90
33741;DHT22;20065;48.380;10.892;2023-06-05T16:47:25;20.40;99.90
33741;DHT22;20065;48.380;10.892;2023-06-05T16:50:12;20.40;99.90
33741;DHT22;20065;48.380;10.892;2023-06-05T16:53:00;20.50;99.90
33741;DHT22;20065;48.380;10.892;2023-06-05T16:55:49;20.50;99.90
33741;DHT22;20065;48.380;10.892;2023-06-05T16:58:42;20.40;99.90
33741;DHT22;20065;48.380;10.892;2023-06-05T17:01:28;20.50;99.90
33741;DHT22;20065;48.380;10.892;2023-06-05T17:04:14;20.50;99.90
33741;DHT22;20065;48.380;10.892;2023-06-05T17:07:12;20.60;99.90
33741;DHT22;20065;48.380;10.892;2023-06-05T17:09:58;20.60;99.90
33741;DHT22;20065;48.380;10.892;2023-06-05T17:12:44;20.60;99.90
33741;DHT22;20065;48.380;10.892;2023-06-05T17:15:31;20.60;99.90
33741;DHT22;20065;48.380;10.892;2023-06-05T17:18:17;20.60;99.90
33741;DHT22;20065;48.380;10.892;2023-06-05T17:21:04;20.50;99.90
33741;DHT22;20065;48.380;10.892;2023-06-05T17:23:50;20.60;99.90
33741;DHT22;20065;48.380;10.892;2023-06-05T17:26:36;20.60;99.90
33741;DHT22;20065;48.380;10.892;2023-06-05T17:29:22;20.60;99.90
33741;DHT22;20065;48.380;10.892;2023-06-05T17:32:09;20.60;99.90
33741;DHT22;20065;48.380;10.892;2023-06-05T17:34:56;20.60;99.90
33741;DHT22;20065;48.380;10.892;2023-06-05T17:37:44;20.60;99.90
33741;DHT22;20065;48.380;10.892;2023-06-05T17:40:30;20.60;99.90
33741;DHT22;20065;48.380;10.892;2023-06-05T17:43:16;20.70;99.90
33741;DHT22;20065;48.380;10.892;2023-06-05T17:46:02;20.70;99.90
33741;DHT22;20065;48.380;10.892;2023-06-05T17:48:49;20.70;99.90
33741;DHT22;20065;48.380;10.892;2023-06-05T17:51:35;20.60;99.90
33741;DHT22;20065;48.380;10.892;2023-06-05T17:54:21;20.60;99.90